Time;durP1;ratioP1;P1;durP2;ratioP2;P2;SDS_P1;SDS_P2;PMS_P1;PMS_P2;Temp;Humidity;BMP_temperature;BMP_pressure;BME280_temperature;BME280_humidity;BME280_pressure;Samples;Min_cycle;Max_cycle;Signal;HPM_P1;HPM_P2
2024/04/07 00:00:04;;;;;;;2.30;0.75;;;19.80;54.30;;;;;;2091403;28;20063;-72
2024/04/07 00:01:04;;;;;;;3.90;1.00;;;19.80;54.00;;;;;;2093559;28;20039;-72
2024/04/07 00:02:08;;;;;;;2.47;1.10;;;19.90;54.00;;;;;;2090157;28;21477;-72
2024/04/07 00:03:09;;;;;;;1.63;0.98;;;19.80;53.50;;;;;;2084318;28;20570;-72
2024/04/07 00:04:09;;;;;;;2.00;1.05;;;19.90;53.40;;;;;;2084011;28;20116;-73
2024/04/07 00:05:10;;;;;;;2.83;1.30;;;19.90;53.70;;;;;;2092553;28;20112;-73
2024/04/07 00:06:10;;;;;;;2.47;0.90;;;19.90;53.80;;;;;;2093692;28;20028;-71
2024/04/07 00:07:11;;;;;;;2.00;1.35;;;19.90;53.70;;;;;;2092891;28;20120;-71
2024/04/07 00:08:11;;;;;;;4.90;1.25;;;19.90;53.80;;;;;;2091622;28;20033;-72
2024/04/07 00:09:13;;;;;;;3.67;1.30;;;19.90;53.70;;;;;;2085079;28;20017;-72
2024/04/07 00:10:13;;;;;;;5.32;1.13;;;19.90;53.90;;;;;;2084791;28;20409;-71
2024/04/07 00:11:16;;;;;;;4.93;1.35;;;19.90;53.90;;;;;;2092581;28;20044;-73
2024/04/07 00:12:20;;;;;;;2.83;1.05;;;19.90;53.80;;;;;;2083478;28;20056;-73
2024/04/07 00:13:21;;;;;;;3.88;1.05;;;19.90;53.20;;;;;;2080761;28;20052;-73
2024/04/07 00:14:31;;;;;;;2.47;1.30;;;19.90;53.40;;;;;;2085656;28;20036;-71
2024/04/07 00:15:32;;;;;;;2.08;0.88;;;19.90;53.40;;;;;;2091379;28;20035;-72
2024/04/07 00:16:33;;;;;;;3.22;0.98;;;19.90;53.20;;;;;;2090687;28;20028;-72
2024/04/07 00:17:33;;;;;;;3.75;1.00;;;19.90;53.40;;;;;;2093151;28;20033;-71
2024/04/07 00:18:34;;;;;;;2.83;0.93;;;20.00;53.60;;;;;;2092110;28;20025;-71
2024/04/07 00:19:35;;;;;;;4.20;1.05;;;20.00;53.30;;;;;;2090719;28;20037;-72
2024/04/07 00:20:35;;;;;;;2.33;0.93;;;20.00;53.50;;;;;;2092569;28;20131;-71
2024/04/07 00:21:40;;;;;;;3.45;1.50;;;20.00;53.40;;;;;;2050625;28;1252087;-72
2024/04/07 00:22:41;;;;;;;2.90;1.15;;;20.00;53.10;;;;;;2084023;28;20032;-71
2024/04/07 00:23:41;;;;;;;2.45;1.13;;;20.00;53.30;;;;;;2078882;28;20033;-71
2024/04/07 00:24:45;;;;;;;3.60;1.20;;;20.00;53.40;;;;;;2087244;28;20036;-72
2024/04/07 00:25:51;;;;;;;3.55;1.10;;;20.00;53.20;;;;;;2090138;28;20024;-72
2024/04/07 00:26:52;;;;;;;5.25;0.98;;;20.00;53.00;;;;;;2094003;28;20025;-72
2024/04/07 00:27:52;;;;;;;4.70;1.35;;;20.00;52.80;;;;;;2093142;28;20029;-73
2024/04/07 00:28:53;;;;;;;5.35;1.20;;;20.00;53.00;;;;;;2092840;28;20021;-72
2024/04/07 00:29:54;;;;;;;4.13;1.15;;;20.00;53.10;;;;;;2094700;28;20078;-72
2024/04/07 00:30:54;;;;;;;4.22;1.50;;;20.00;52.30;;;;;;2093102;28;20028;-71
2024/04/07 00:31:56;;;;;;;2.75;1.13;;;20.10;52.50;;;;;;2086121;28;20030;-73
2024/04/07 00:32:56;;;;;;;3.25;1.45;;;20.10;52.80;;;;;;2089717;28;20434;-73
2024/04/07 00:33:57;;;;;;;2.30;0.90;;;20.10;53.00;;;;;;2093055;28;20736;-72
2024/04/07 00:34:57;;;;;;;6.43;1.50;;;20.10;53.20;;;;;;2093339;28;20033;-72
2024/04/07 00:35:59;;;;;;;3.22;1.20;;;20.10;53.10;;;;;;2092662;28;20031;-72
2024/04/07 00:37:00;;;;;;;4.85;1.38;;;20.00;53.10;;;;;;2093613;28;20032;-71
2024/04/07 00:38:00;;;;;;;3.70;1.25;;;20.10;53.20;;;;;;2094936;28;20029;-72
2024/04/07 00:39:01;;;;;;;1.67;1.00;;;20.10;53.20;;;;;;2094206;28;20099;-72
2024/04/07 00:40:02;;;;;;;4.32;1.50;;;20.10;52.80;;;;;;2093113;28;20040;-72
2024/04/07 00:41:02;;;;;;;2.92;0.82;;;20.10;52.70;;;;;;2089914;28;20406;-72
2024/04/07 00:42:03;;;;;;;4.18;1.35;;;20.10;52.70;;;;;;2090649;28;20473;-73
2024/04/07 00:43:06;;;;;;;1.83;0.80;;;20.10;53.10;;;;;;2087259;28;20075;-72
2024/04/07 00:44:07;;;;;;;3.22;1.00;;;20.10;52.90;;;;;;2084569;28;20029;-72
2024/04/07 00:45:08;;;;;;;6.18;1.73;;;20.10;52.70;;;;;;2091358;28;20036;-72
2024/04/07 00:46:09;;;;;;;5.47;1.20;;;20.00;52.70;;;;;;2094284;28;20056;-72
2024/04/07 00:47:09;;;;;;;5.45;1.83;;;20.10;52.70;;;;;;2092174;28;20111;-71
2024/04/07 00:48:10;;;;;;;3.22;1.20;;;20.10;52.70;;;;;;2090074;28;20055;-73
2024/04/07 00:49:11;;;;;;;3.63;0.75;;;20.10;52.70;;;;;;2093335;28;20147;-71
2024/04/07 00:50:14;;;;;;;2.92;1.00;;;20.10;52.70;;;;;;2092848;28;20393;-72
2024/04/07 00:51:15;;;;;;;2.15;1.10;;;20.10;52.60;;;;;;2085349;28;20029;-71
2024/04/07 00:52:15;;;;;;;4.57;1.20;;;20.10;52.90;;;;;;2086716;28;20032;-72
2024/04/07 00:53:17;;;;;;;4.90;1.73;;;20.10;52.60;;;;;;2093843;28;20024;-73
2024/04/07 00:54:19;;;;;;;2.10;1.38;;;20.10;52.70;;;;;;2093729;28;20406;-73
2024/04/07 00:55:21;;;;;;;3.33;1.50;;;20.10;52.60;;;;;;2083333;28;20825;-73
2024/04/07 00:56:27;;;;;;;5.30;1.85;;;20.10;52.60;;;;;;2087289;28;20071;-72
2024/04/07 00:57:31;;;;;;;3.03;1.30;;;20.10;52.80;;;;;;2091339;28;20029;-71
2024/04/07 00:58:33;;;;;;;2.88;1.00;;;20.10;52.90;;;;;;2092921;28;20029;-72
2024/04/07 00:59:34;;;;;;;3.95;1.10;;;20.10;52.40;;;;;;2093387;28;20021;-73
2024/04/07 01:00:35;;;;;;;1.58;0.82;;;20.10;52.30;;;;;;2091486;28;20029;-72
2024/04/07 01:01:36;;;;;;;7.28;1.35;;;20.10;52.30;;;;;;2084716;28;20060;-73
2024/04/07 01:02:37;;;;;;;6.40;1.40;;;20.20;52.20;;;;;;2084977;28;20435;-72
2024/04/07 01:03:38;;;;;;;8.35;1.60;;;20.20;52.40;;;;;;2091719;28;20358;-72
2024/04/07 01:04:38;;;;;;;3.92;1.20;;;20.20;52.50;;;;;;2092985;28;20530;-72
2024/04/07 01:05:44;;;;;;;4.78;1.30;;;20.20;52.40;;;;;;2083452;28;20034;-72
2024/04/07 01:06:45;;;;;;;4.05;1.33;;;20.20;52.20;;;;;;2082708;28;20029;-71
2024/04/07 01:07:47;;;;;;;3.55;1.35;;;20.30;52.20;;;;;;2082942;28;20211;-74
2024/04/07 01:08:53;;;;;;;4.18;1.30;;;20.20;53.10;;;;;;2086091;28;20029;-71
2024/04/07 01:09:54;;;;;;;2.72;1.08;;;20.30;52.40;;;;;;2092344;28;20017;-73
2024/04/07 01:10:55;;;;;;;2.78;1.40;;;20.30;52.30;;;;;;2094875;28;20028;-71
2024/04/07 01:11:56;;;;;;;4.05;1.50;;;20.30;52.50;;;;;;2094800;28;20500;-71
2024/04/07 01:12:56;;;;;;;3.10;1.08;;;20.30;52.20;;;;;;2093011;28;20025;-71
2024/04/07 01:13:57;;;;;;;3.83;1.38;;;20.30;52.00;;;;;;2092410;28;20024;-70
2024/04/07 01:14:57;;;;;;;3.00;1.00;;;20.30;52.20;;;;;;2091571;28;20385;-71
2024/04/07 01:15:58;;;;;;;2.35;1.15;;;20.30;52.30;;;;;;2094528;28;20040;-71
2024/04/07 01:16:59;;;;;;;2.30;1.08;;;20.30;52.20;;;;;;2093948;28;20052;-71
2024/04/07 01:17:59;;;;;;;11.38;2.05;;;20.40;52.40;;;;;;2093792;28;20584;-71
2024/04/07 01:19:00;;;;;;;3.00;1.20;;;20.40;53.00;;;;;;2082523;28;20032;-73
2024/04/07 01:20:05;;;;;;;9.13;1.48;;;20.40;52.30;;;;;;2085566;28;20434;-73
2024/04/07 01:21:12;;;;;;;3.70;1.15;;;20.40;52.20;;;;;;2085162;28;20086;-71
2024/04/07 01:22:13;;;;;;;3.70;1.50;;;20.40;52.20;;;;;;2084935;28;20041;-72
2024/04/07 01:23:17;;;;;;;3.55;1.02;;;20.40;52.40;;;;;;2095209;28;20024;-72
2024/04/07 01:24:18;;;;;;;6.97;1.15;;;20.40;52.40;;;;;;2093025;28;20572;-72
2024/04/07 01:25:20;;;;;;;2.75;1.08;;;20.40;52.40;;;;;;2094381;28;20037;-71
2024/04/07 01:26:22;;;;;;;3.55;1.20;;;20.40;52.30;;;;;;2094365;28;20027;-71
2024/04/07 01:27:23;;;;;;;4.28;1.92;;;20.40;52.50;;;;;;2085766;28;20067;-71
2024/04/07 01:28:24;;;;;;;4.03;0.90;;;20.40;52.30;;;;;;2087074;28;20057;-71
2024/04/07 01:29:24;;;;;;;3.75;1.50;;;20.40;52.40;;;;;;2086883;28;20442;-72
2024/04/07 01:30:26;;;;;;;7.72;1.20;;;20.40;52.50;;;;;;2088043;28;20045;-72
2024/04/07 01:31:26;;;;;;;3.03;1.20;;;20.40;52.40;;;;;;2080226;28;20065;-71
2024/04/07 01:32:27;;;;;;;1.85;1.00;;;20.40;52.50;;;;;;2078987;28;20017;-72
2024/04/07 01:33:28;;;;;;;4.20;1.10;;;20.40;52.50;;;;;;2091753;28;20024;-71
2024/04/07 01:34:35;;;;;;;5.63;1.42;;;20.40;52.50;;;;;;2092162;28;20091;-70
2024/04/07 01:35:36;;;;;;;3.78;1.10;;;20.40;52.60;;;;;;2094758;28;20029;-71
2024/04/07 01:36:37;;;;;;;7.00;1.90;;;20.40;52.80;;;;;;2085265;28;20116;-72
2024/04/07 01:37:38;;;;;;;7.45;1.20;;;20.40;52.70;;;;;;2083863;28;20037;-72
2024/04/07 01:38:39;;;;;;;9.15;1.15;;;20.40;52.70;;;;;;2093503;28;20115;-71
2024/04/07 01:39:40;;;;;;;5.50;1.60;;;20.40;52.80;;;;;;2081489;28;20029;-73
2024/04/07 01:40:41;;;;;;;3.38;1.17;;;20.40;52.50;;;;;;2083406;28;20033;-71
2024/04/07 01:41:41;;;;;;;3.17;1.17;;;20.40;52.50;;;;;;2093801;28;20037;-74
2024/04/07 01:42:42;;;;;;;2.67;1.13;;;20.40;52.50;;;;;;2079896;28;20488;-73
2024/04/07 01:43:43;;;;;;;6.05;1.05;;;20.40;52.70;;;;;;2084228;28;20452;-72
2024/04/07 01:44:43;;;;;;;3.97;1.08;;;20.50;52.90;;;;;;2086064;28;20033;-73
2024/04/07 01:45:44;;;;;;;5.00;1.25;;;20.50;52.50;;;;;;2094068;28;20031;-72
2024/04/07 01:46:44;;;;;;;5.68;1.70;;;20.50;52.60;;;;;;2094897;28;20351;-72
2024/04/07 01:47:45;;;;;;;3.63;1.05;;;20.50;52.50;;;;;;2093187;28;20025;-73
2024/04/07 01:48:46;;;;;;;4.55;1.40;;;20.50;52.80;;;;;;2094890;28;20035;-72
2024/04/07 01:49:49;;;;;;;4.65;1.20;;;20.50;52.80;;;;;;2096343;28;20021;-73
2024/04/07 01:50:50;;;;;;;6.97;1.52;;;20.50;52.80;;;;;;2086237;28;21429;-72
2024/04/07 01:51:50;;;;;;;3.97;1.10;;;20.50;52.70;;;;;;2084972;28;20017;-72
2024/04/07 01:52:52;;;;;;;5.72;1.65;;;20.50;52.80;;;;;;2094152;28;20016;-72
2024/04/07 01:53:53;;;;;;;3.92;1.35;;;20.60;52.70;;;;;;2094311;28;20032;-72
2024/04/07 01:54:54;;;;;;;2.20;0.90;;;20.50;52.80;;;;;;2093916;28;20017;-72
2024/04/07 01:55:54;;;;;;;4.88;1.30;;;20.50;52.90;;;;;;2092820;28;20040;-74
2024/04/07 01:56:55;;;;;;;4.50;1.60;;;20.60;52.80;;;;;;2094457;28;20032;-71
2024/04/07 01:57:55;;;;;;;4.07;1.10;;;20.50;52.90;;;;;;2095464;28;20036;-73
2024/04/07 01:58:56;;;;;;;2.00;1.23;;;20.60;53.10;;;;;;2095181;28;20683;-72
2024/04/07 01:59:57;;;;;;;3.33;1.35;;;20.50;52.70;;;;;;2093893;28;20036;-73
2024/04/07 02:00:58;;;;;;;4.32;1.20;;;20.60;52.80;;;;;;2087655;28;20552;-73
2024/04/07 02:01:58;;;;;;;5.05;1.75;;;20.60;52.70;;;;;;2077191;28;20140;-72
2024/04/07 02:02:59;;;;;;;3.30;1.00;;;20.60;52.80;;;;;;2076474;28;20375;-73
2024/04/07 02:03:59;;;;;;;5.63;1.63;;;20.60;52.70;;;;;;2086787;28;20021;-72
2024/04/07 02:05:00;;;;;;;3.10;1.23;;;20.60;52.80;;;;;;2093458;28;20037;-73
2024/04/07 02:06:01;;;;;;;4.22;1.02;;;20.60;52.90;;;;;;2092853;28;20084;-72
2024/04/07 02:07:04;;;;;;;3.88;1.30;;;20.60;53.00;;;;;;2088590;28;20025;-73
2024/04/07 02:08:05;;;;;;;4.63;1.25;;;20.60;52.90;;;;;;2088184;28;20031;-73
2024/04/07 02:09:06;;;;;;;5.18;1.05;;;20.60;52.90;;;;;;2094450;28;20028;-73
2024/04/07 02:10:09;;;;;;;3.60;1.30;;;20.60;52.90;;;;;;2092424;28;20044;-73
2024/04/07 02:11:10;;;;;;;4.05;1.08;;;20.60;53.10;;;;;;2093413;28;20090;-74
2024/04/07 02:12:11;;;;;;;8.60;1.73;;;20.60;52.90;;;;;;2094632;28;20033;-72
2024/04/07 02:13:11;;;;;;;5.80;1.38;;;20.60;53.10;;;;;;2089557;28;20040;-72
2024/04/07 02:14:12;;;;;;;6.57;1.30;;;20.60;53.10;;;;;;2092406;28;20056;-72
2024/04/07 02:15:13;;;;;;;3.47;0.95;;;20.60;53.10;;;;;;2095086;28;20139;-73
2024/04/07 02:16:14;;;;;;;3.42;1.20;;;20.60;53.20;;;;;;2093567;28;20020;-72
2024/04/07 02:17:14;;;;;;;2.22;1.00;;;20.60;53.40;;;;;;2093339;28;20016;-73
2024/04/07 02:18:15;;;;;;;5.00;1.63;;;20.60;53.40;;;;;;2093979;28;20102;-73
2024/04/07 02:19:16;;;;;;;2.65;1.00;;;20.60;53.40;;;;;;2092329;28;20032;-72
2024/04/07 02:20:17;;;;;;;5.82;1.10;;;20.60;53.50;;;;;;2095783;28;20020;-72
2024/04/07 02:21:18;;;;;;;3.13;1.10;;;20.60;53.50;;;;;;2094108;28;20020;-73
2024/04/07 02:22:19;;;;;;;6.45;1.77;;;20.60;53.50;;;;;;2094314;28;20373;-73
2024/04/07 02:23:20;;;;;;;4.97;1.13;;;20.60;53.70;;;;;;2092598;28;20050;-71
2024/04/07 02:24:20;;;;;;;7.65;1.63;;;20.60;53.80;;;;;;2090541;28;20182;-72
2024/04/07 02:25:21;;;;;;;3.88;1.60;;;20.60;53.80;;;;;;2095811;28;20013;-72
2024/04/07 02:26:21;;;;;;;2.95;1.27;;;20.60;53.70;;;;;;2093623;28;20044;-71
2024/04/07 02:27:22;;;;;;;3.47;1.40;;;20.70;53.90;;;;;;2093844;28;20031;-71
2024/04/07 02:28:23;;;;;;;4.50;1.50;;;20.60;54.00;;;;;;2094189;28;20021;-73
2024/04/07 02:29:24;;;;;;;3.35;1.30;;;20.70;54.00;;;;;;2094372;28;20098;-71
2024/04/07 02:30:24;;;;;;;3.85;1.60;;;20.60;54.10;;;;;;2092503;28;20147;-73
2024/04/07 02:31:26;;;;;;;2.72;1.15;;;20.70;54.20;;;;;;2095003;28;20090;-72
2024/04/07 02:32:27;;;;;;;5.88;1.40;;;20.70;54.20;;;;;;2094281;28;20353;-72
2024/04/07 02:33:27;;;;;;;3.45;1.50;;;20.70;54.30;;;;;;2096247;28;20029;-71
2024/04/07 02:34:28;;;;;;;5.15;1.85;;;20.70;54.30;;;;;;2087953;28;20039;-71
2024/04/07 02:35:28;;;;;;;6.75;1.83;;;20.70;54.50;;;;;;2090189;28;20032;-73
2024/04/07 02:36:31;;;;;;;3.20;1.33;;;20.70;54.50;;;;;;2093440;28;20028;-73
2024/04/07 02:37:31;;;;;;;4.40;1.42;;;20.70;54.90;;;;;;2093301;28;20029;-73
2024/04/07 02:38:32;;;;;;;5.20;1.38;;;20.70;54.70;;;;;;2094909;28;20055;-72
2024/04/07 02:39:33;;;;;;;4.53;1.55;;;20.70;54.80;;;;;;2093378;28;20066;-72
2024/04/07 02:40:33;;;;;;;3.10;1.17;;;20.70;54.70;;;;;;2093102;28;20106;-72
2024/04/07 02:41:34;;;;;;;4.88;2.00;;;20.70;54.80;;;;;;2093911;28;20078;-73
2024/04/07 02:42:34;;;;;;;3.00;1.35;;;20.70;54.80;;;;;;2094459;28;20029;-72
2024/04/07 02:43:35;;;;;;;4.25;1.45;;;20.70;54.90;;;;;;2093152;28;20091;-72
2024/04/07 02:48:34;;;;;;;5.40;1.20;;;20.60;55.50;;;;;;2093157;28;20021;-72
2024/04/07 02:49:34;;;;;;;10.57;2.05;;;20.60;55.70;;;;;;2086416;28;20048;-72
2024/04/07 02:50:36;;;;;;;3.72;1.50;;;20.60;55.90;;;;;;2084983;28;20017;-74
2024/04/07 02:51:36;;;;;;;4.97;1.70;;;20.60;56.20;;;;;;2085938;28;20025;-72
2024/04/07 02:52:37;;;;;;;5.43;1.75;;;20.60;56.30;;;;;;2078499;28;20029;-72
2024/04/07 02:53:39;;;;;;;6.38;1.83;;;20.60;56.50;;;;;;2085342;28;20048;-72
2024/04/07 02:54:39;;;;;;;7.35;1.60;;;20.60;56.90;;;;;;2091741;28;20028;-72
2024/04/07 02:55:40;;;;;;;6.32;1.83;;;20.60;57.10;;;;;;2093050;28;20063;-72
2024/04/07 02:56:40;;;;;;;4.03;1.60;;;20.60;57.30;;;;;;2092433;28;20033;-73
2024/04/07 02:57:41;;;;;;;5.18;1.92;;;20.60;57.50;;;;;;2093120;28;20025;-72
2024/04/07 02:58:44;;;;;;;4.80;2.08;;;20.60;57.60;;;;;;2091984;28;20112;-72
2024/04/07 02:59:46;;;;;;;3.03;1.75;;;20.60;58.00;;;;;;2093713;28;20083;-72
2024/04/07 03:00:47;;;;;;;5.18;2.20;;;20.60;58.20;;;;;;2092643;28;20032;-72
2024/04/07 03:01:47;;;;;;;7.85;2.10;;;20.60;58.40;;;;;;2092923;28;20025;-72
2024/04/07 03:02:48;;;;;;;7.25;1.80;;;20.50;58.50;;;;;;2091538;28;20032;-72
2024/04/07 03:03:48;;;;;;;8.90;2.10;;;20.60;58.60;;;;;;2093038;28;20013;-72
2024/04/07 03:04:49;;;;;;;4.22;1.80;;;20.50;58.80;;;;;;2092981;28;20029;-72
2024/04/07 03:05:50;;;;;;;5.10;2.85;;;20.50;58.90;;;;;;2094259;28;20116;-72
2024/04/07 03:06:52;;;;;;;9.02;2.25;;;20.50;59.10;;;;;;2092864;28;20028;-72
2024/04/07 03:07:52;;;;;;;7.13;2.03;;;20.50;59.20;;;;;;2095180;28;20384;-72
2024/04/07 03:08:57;;;;;;;6.57;1.80;;;20.50;59.30;;;;;;2092569;28;20032;-72
2024/04/07 03:09:57;;;;;;;6.82;2.30;;;20.50;59.50;;;;;;2093179;28;20412;-72
2024/04/07 03:10:59;;;;;;;5.50;2.25;;;20.50;59.50;;;;;;2092684;28;20078;-72
2024/04/07 03:12:00;;;;;;;5.82;2.45;;;20.50;59.60;;;;;;2091431;28;20397;-72
2024/04/07 03:13:00;;;;;;;4.65;2.15;;;20.50;59.90;;;;;;2093826;28;20064;-72
2024/04/07 03:14:01;;;;;;;6.80;2.42;;;20.50;60.20;;;;;;2084010;28;20052;-72
2024/04/07 03:15:03;;;;;;;4.78;2.03;;;20.40;60.40;;;;;;2085602;28;20079;-72
2024/04/07 03:16:16;;;;;;;4.20;1.60;;;20.40;60.90;;;;;;2091777;28;20044;-72
2024/04/07 03:17:16;;;;;;;5.65;1.70;;;20.40;61.30;;;;;;2086227;28;20029;-72
2024/04/07 03:18:17;;;;;;;6.53;1.92;;;20.40;61.20;;;;;;2086550;28;20041;-72
2024/04/07 03:19:18;;;;;;;5.45;2.13;;;20.30;61.50;;;;;;2092589;28;20100;-72
2024/04/07 03:20:18;;;;;;;4.22;1.98;;;20.30;61.80;;;;;;2092305;28;20082;-72
2024/04/07 03:21:19;;;;;;;6.07;1.88;;;20.30;61.80;;;;;;2093216;28;20504;-72
2024/04/07 03:22:20;;;;;;;6.97;2.13;;;20.30;62.10;;;;;;2094817;28;20520;-72
2024/04/07 03:23:20;;;;;;;4.00;1.92;;;20.30;62.30;;;;;;2090865;28;20036;-72
2024/04/07 03:24:21;;;;;;;6.88;1.77;;;20.20;62.30;;;;;;2093655;28;20028;-72
2024/04/07 03:25:21;;;;;;;5.97;1.83;;;20.20;62.50;;;;;;2092941;28;20096;-72
2024/04/07 03:26:22;;;;;;;6.38;2.00;;;20.20;62.70;;;;;;2089309;28;20025;-72
2024/04/07 03:27:22;;;;;;;6.68;2.33;;;20.20;62.90;;;;;;2092008;28;20099;-72
2024/04/07 03:28:23;;;;;;;4.03;1.70;;;20.20;63.10;;;;;;2093114;28;20028;-72
2024/04/07 03:29:24;;;;;;;4.60;2.63;;;20.20;63.20;;;;;;2094007;28;20036;-72
2024/04/07 03:30:24;;;;;;;5.97;2.05;;;20.10;63.20;;;;;;2083313;28;20029;-72
2024/04/07 03:31:25;;;;;;;5.95;1.98;;;20.10;63.40;;;;;;2084119;28;20090;-72
2024/04/07 03:32:25;;;;;;;5.57;2.13;;;20.10;63.70;;;;;;2093867;28;20063;-72
2024/04/07 03:33:26;;;;;;;4.25;1.90;;;20.10;63.70;;;;;;2092090;28;20057;-72
2024/04/07 03:34:26;;;;;;;6.13;2.60;;;20.10;63.90;;;;;;2093024;28;20076;-72
2024/04/07 03:35:28;;;;;;;7.30;2.22;;;20.10;64.10;;;;;;2090201;28;20024;-72
2024/04/07 03:36:28;;;;;;;7.50;2.80;;;20.10;64.40;;;;;;2091847;28;20025;-71
2024/04/07 03:37:29;;;;;;;9.32;1.90;;;20.00;64.50;;;;;;2083487;28;20492;-71
2024/04/07 03:38:29;;;;;;;6.53;1.95;;;20.10;64.70;;;;;;2086165;28;20057;-72
2024/04/07 03:39:30;;;;;;;6.68;2.25;;;20.00;64.80;;;;;;2094534;28;20032;-71
2024/04/07 03:40:31;;;;;;;8.13;2.08;;;20.00;64.90;;;;;;2093254;28;20017;-71
2024/04/07 03:41:31;;;;;;;8.57;2.05;;;20.00;65.10;;;;;;2090536;28;20070;-72
2024/04/07 03:42:32;;;;;;;4.95;1.92;;;20.00;65.20;;;;;;2093392;28;20021;-72
2024/04/07 03:43:33;;;;;;;7.03;2.42;;;20.00;65.40;;;;;;2093002;28;20032;-71
2024/04/07 03:44:33;;;;;;;6.90;2.33;;;20.00;65.40;;;;;;2093690;28;20525;-71
2024/04/07 03:45:34;;;;;;;7.15;2.60;;;19.90;65.50;;;;;;2092932;28;20435;-72
2024/04/07 03:46:37;;;;;;;5.55;1.88;;;19.90;65.70;;;;;;2092246;28;20025;-71
2024/04/07 03:47:39;;;;;;;5.90;1.70;;;19.90;65.90;;;;;;2092476;28;20535;-72
2024/04/07 03:48:39;;;;;;;6.00;2.25;;;19.90;65.90;;;;;;2092454;28;20047;-72
2024/04/07 03:49:40;;;;;;;5.55;2.17;;;19.90;66.00;;;;;;2094105;28;20028;-71
2024/04/07 03:50:41;;;;;;;5.85;1.83;;;19.90;66.10;;;;;;2091149;28;20107;-71
2024/04/07 03:51:42;;;;;;;6.32;2.50;;;19.90;66.20;;;;;;2091248;28;20036;-71
2024/04/07 03:52:42;;;;;;;3.33;1.65;;;19.90;66.30;;;;;;2094350;28;20052;-72
2024/04/07 03:53:43;;;;;;;6.63;2.10;;;19.90;66.40;;;;;;2093434;28;20035;-72
2024/04/07 03:54:43;;;;;;;5.88;1.70;;;19.80;66.60;;;;;;2092725;28;20043;-71
2024/04/07 03:55:44;;;;;;;5.80;1.73;;;19.80;66.50;;;;;;2093503;28;20150;-72
2024/04/07 03:56:45;;;;;;;6.13;2.03;;;19.80;66.50;;;;;;2092549;28;20040;-72
2024/04/07 03:57:45;;;;;;;5.75;2.08;;;19.80;66.80;;;;;;2092339;28;20036;-72
2024/04/07 03:58:46;;;;;;;6.40;2.20;;;19.80;66.80;;;;;;2093618;28;20388;-72
2024/04/07 03:59:46;;;;;;;9.40;2.50;;;19.80;67.00;;;;;;2088460;28;20032;-72
2024/04/07 04:00:47;;;;;;;6.15;2.17;;;19.80;67.10;;;;;;2088977;28;20127;-72
2024/04/07 04:01:48;;;;;;;6.45;2.50;;;19.80;67.20;;;;;;2085196;28;20517;-72
2024/04/07 04:02:50;;;;;;;4.43;1.70;;;19.80;67.30;;;;;;2086511;28;20108;-72
2024/04/07 04:03:51;;;;;;;3.83;1.60;;;19.70;67.30;;;;;;2093330;28;20064;-71
2024/04/07 04:05:02;;;;;;;4.35;1.63;;;19.70;67.60;;;;;;2091971;28;20043;-72
2024/04/07 04:06:04;;;;;;;6.63;2.03;;;19.70;68.00;;;;;;2093881;28;20456;-72
2024/04/07 04:07:04;;;;;;;7.63;1.80;;;19.70;67.60;;;;;;2093171;28;21978;-72
2024/04/07 04:08:05;;;;;;;5.90;2.08;;;19.60;67.70;;;;;;2092715;28;20060;-71
2024/04/07 04:09:06;;;;;;;5.57;1.80;;;19.60;67.80;;;;;;2094056;28;20020;-71
2024/04/07 04:10:07;;;;;;;4.88;1.75;;;19.60;68.00;;;;;;2091937;28;20029;-71
2024/04/07 04:11:09;;;;;;;4.78;1.88;;;19.60;68.10;;;;;;2093586;28;20773;-72
2024/04/07 04:12:10;;;;;;;4.50;1.75;;;19.60;68.00;;;;;;2092603;28;20035;-72
2024/04/07 04:13:11;;;;;;;5.93;1.77;;;19.50;68.90;;;;;;2094216;28;20024;-72
2024/04/07 04:14:11;;;;;;;5.53;2.15;;;19.50;68.30;;;;;;2093249;28;20237;-72
2024/04/07 04:15:12;;;;;;;6.25;1.88;;;19.50;68.50;;;;;;2093365;28;20365;-72
2024/04/07 04:16:12;;;;;;;4.63;1.77;;;19.50;68.60;;;;;;2093924;28;20052;-71
2024/04/07 04:17:14;;;;;;;5.75;2.00;;;19.50;68.70;;;;;;2092790;28;20496;-72
2024/04/07 04:18:15;;;;;;;6.45;1.88;;;19.50;69.50;;;;;;2085429;28;20124;-71
2024/04/07 04:19:15;;;;;;;5.20;2.03;;;19.50;68.90;;;;;;2087462;28;20036;-71
2024/04/07 04:20:16;;;;;;;4.25;1.70;;;19.40;69.00;;;;;;2094779;28;20024;-71
2024/04/07 04:21:16;;;;;;;5.30;1.80;;;19.50;69.10;;;;;;2092137;28;20051;-71
2024/04/07 04:22:17;;;;;;;3.60;1.60;;;19.50;69.30;;;;;;2089217;28;20033;-71
2024/04/07 04:23:18;;;;;;;5.53;1.65;;;19.40;69.30;;;;;;2093717;28;20637;-71
2024/04/07 04:24:23;;;;;;;3.65;1.52;;;19.40;69.20;;;;;;2092057;28;20471;-71
2024/04/07 04:25:25;;;;;;;3.85;1.55;;;19.40;69.40;;;;;;2093695;28;20033;-69
2024/04/07 04:26:27;;;;;;;6.45;2.10;;;19.40;69.40;;;;;;2093392;28;20024;-69
2024/04/07 04:27:29;;;;;;;6.53;1.70;;;19.40;69.50;;;;;;2093160;28;20017;-71
2024/04/07 04:28:29;;;;;;;7.22;1.88;;;19.30;69.40;;;;;;2092313;28;20031;-69
2024/04/07 04:29:32;;;;;;;2.97;1.50;;;19.40;69.60;;;;;;2093058;28;20039;-69
2024/04/07 04:30:33;;;;;;;7.20;1.98;;;19.30;69.70;;;;;;2087279;28;20040;-68
2024/04/07 04:31:33;;;;;;;4.43;2.10;;;19.30;69.80;;;;;;2086622;28;20040;-68
2024/04/07 04:32:34;;;;;;;12.43;2.10;;;19.30;69.80;;;;;;2093258;28;20032;-70
2024/04/07 04:33:35;;;;;;;6.18;1.67;;;19.30;70.10;;;;;;2091457;28;20040;-69
2024/04/07 04:34:36;;;;;;;3.28;1.73;;;19.30;70.20;;;;;;2093333;28;20052;-69
2024/04/07 04:35:36;;;;;;;4.53;1.80;;;19.30;70.30;;;;;;2092195;28;20966;-69
2024/04/07 04:36:37;;;;;;;4.97;2.03;;;19.30;70.30;;;;;;2083922;28;20036;-69
2024/04/07 04:37:38;;;;;;;4.57;2.05;;;19.30;70.50;;;;;;2083513;28;20100;-70
2024/04/07 04:38:38;;;;;;;4.43;1.52;;;19.30;70.50;;;;;;2092758;28;20624;-70
2024/04/07 04:39:39;;;;;;;6.60;1.88;;;19.30;70.50;;;;;;2092751;28;20031;-69
2024/04/07 04:40:40;;;;;;;4.60;1.60;;;19.20;70.50;;;;;;2093280;28;20089;-70
2024/04/07 04:41:42;;;;;;;8.18;1.88;;;19.20;70.60;;;;;;2090641;28;20037;-70
2024/04/07 04:42:42;;;;;;;7.60;1.90;;;19.20;70.50;;;;;;2091791;28;20029;-68
2024/04/07 04:43:43;;;;;;;7.80;1.95;;;19.20;70.60;;;;;;2092064;28;20040;-69
2024/04/07 04:44:43;;;;;;;4.75;2.05;;;19.20;70.90;;;;;;2091867;28;20106;-68
2024/04/07 04:45:45;;;;;;;4.22;1.70;;;19.20;70.80;;;;;;2091588;28;20080;-69
2024/04/07 04:46:47;;;;;;;3.95;1.77;;;19.20;71.00;;;;;;2093458;28;20047;-69
2024/04/07 04:47:47;;;;;;;3.33;1.73;;;19.20;70.90;;;;;;2092455;28;20044;-70
2024/04/07 04:48:48;;;;;;;7.22;1.73;;;19.20;71.00;;;;;;2093477;28;20116;-69
2024/04/07 04:49:48;;;;;;;4.00;1.60;;;19.20;71.20;;;;;;2091970;28;20039;-69
2024/04/07 04:50:54;;;;;;;4.00;1.83;;;19.20;71.40;;;;;;2092968;28;20101;-69
2024/04/07 04:51:54;;;;;;;4.90;1.83;;;19.10;71.50;;;;;;2091039;28;20507;-70
2024/04/07 04:52:55;;;;;;;5.55;1.50;;;19.10;71.50;;;;;;2092977;28;20486;-69
2024/04/07 04:53:55;;;;;;;6.00;1.60;;;19.10;71.80;;;;;;2092699;28;20033;-70
2024/04/07 04:54:57;;;;;;;3.53;2.10;;;19.10;71.80;;;;;;2094746;28;20423;-69
2024/04/07 04:55:59;;;;;;;3.83;1.65;;;19.00;71.80;;;;;;2095445;28;20992;-69
2024/04/07 04:57:00;;;;;;;5.43;1.30;;;19.10;72.00;;;;;;2094057;28;20033;-69
2024/04/07 04:58:01;;;;;;;3.33;1.40;;;19.10;72.00;;;;;;2094923;28;20043;-68
2024/04/07 04:59:02;;;;;;;8.82;2.10;;;19.10;72.10;;;;;;2092562;28;20056;-68
2024/04/07 05:00:03;;;;;;;4.03;1.65;;;19.10;72.20;;;;;;2094145;28;20021;-70
2024/04/07 05:01:14;;;;;;;5.03;1.98;;;19.00;72.10;;;;;;2093777;28;20040;-69
2024/04/07 05:02:14;;;;;;;;;;;19.00;72.60;;;;;;2093657;28;20099;-69
2024/04/07 05:03:15;;;;;;;4.65;1.92;;;18.90;73.70;;;;;;2094448;28;19916;-68
2024/04/07 05:04:16;;;;;;;3.22;1.33;;;18.90;72.50;;;;;;2093112;28;20107;-68
2024/04/07 05:05:17;;;;;;;5.03;2.17;;;18.90;72.60;;;;;;2094474;28;20021;-69
2024/04/07 05:06:19;;;;;;;3.10;1.65;;;18.90;72.80;;;;;;2094602;28;20457;-68
2024/04/07 05:07:19;;;;;;;5.70;2.17;;;18.90;73.60;;;;;;2095355;28;20028;-69
2024/04/07 05:08:20;;;;;;;4.43;1.77;;;18.90;73.10;;;;;;2093621;28;20103;-69
2024/04/07 05:09:20;;;;;;;4.75;1.88;;;18.90;73.20;;;;;;2086789;28;20072;-69
2024/04/07 05:10:21;;;;;;;6.13;1.58;;;18.90;73.20;;;;;;2085299;28;20028;-69
2024/04/07 05:11:22;;;;;;;4.50;1.80;;;18.90;73.30;;;;;;2085431;28;20393;-69
2024/04/07 05:12:23;;;;;;;4.35;1.55;;;18.90;73.50;;;;;;2084614;28;20116;-68
2024/04/07 05:13:24;;;;;;;5.13;2.05;;;18.90;73.50;;;;;;2084858;28;20017;-69
2024/04/07 05:14:24;;;;;;;4.93;1.95;;;18.90;73.60;;;;;;2084437;28;20163;-69
2024/04/07 05:15:25;;;;;;;4.32;1.60;;;18.90;73.70;;;;;;2094786;28;20028;-69
2024/04/07 05:16:26;;;;;;;7.15;2.20;;;18.90;73.70;;;;;;2094106;28;20020;-70
2024/04/07 05:17:26;;;;;;;9.55;2.22;;;18.90;73.80;;;;;;2093808;28;21166;-69
2024/04/07 05:18:27;;;;;;;6.53;2.13;;;18.90;73.70;;;;;;2094034;28;20031;-69
2024/04/07 05:19:27;;;;;;;5.30;2.10;;;18.90;74.60;;;;;;2084032;28;20381;-71
2024/04/07 05:20:28;;;;;;;4.78;2.05;;;18.80;73.60;;;;;;2084585;28;20021;-69
2024/04/07 05:21:29;;;;;;;3.42;1.90;;;18.80;73.50;;;;;;2086567;28;20017;-69
2024/04/07 05:22:30;;;;;;;6.72;2.15;;;18.90;73.60;;;;;;2087491;28;20029;-69